Time;durP1;ratioP1;P1;durP2;ratioP2;P2;SDS_P1;SDS_P2;PMS_P1;PMS_P2;Temp;Humidity;BMP_temperature;BMP_pressure;BME280_temperature;BME280_humidity;BME280_pressure;Samples;Min_cycle;Max_cycle;Signal;HPM_P1;HPM_P2
2022/01/04 00:01:20;;;;;;;2.05;1.95;;;11.00;99.90;;;11.45;80.09;96964.69;5241412;28;20236;-61
2022/01/04 00:03:54;;;;;;;1.80;1.70;;;10.90;99.90;;;11.46;79.88;96956.19;5241600;28;20285;-61
2022/01/04 00:06:28;;;;;;;2.80;2.10;;;11.00;99.90;;;11.49;80.16;96958.00;5240322;28;20196;-60
2022/01/04 00:09:04;;;;;;;2.10;2.00;;;10.90;99.90;;;11.51;79.94;96953.81;5243244;28;20196;-62
2022/01/04 00:11:59;;;;;;;2.17;2.08;;;11.00;99.90;;;11.55;80.10;96945.44;5241525;28;20718;-62
2022/01/04 00:14:32;;;;;;;2.63;1.67;;;11.00;99.90;;;11.53;80.06;96948.75;5242379;28;20208;-60
2022/01/04 00:17:05;;;;;;;2.00;1.90;;;11.10;99.90;;;11.62;80.04;96939.75;5239708;28;20223;-62
2022/01/04 00:19:38;;;;;;;2.05;1.95;;;11.10;99.90;;;11.58;80.33;96927.63;5242918;28;20196;-61
2022/01/04 00:22:13;;;;;;;2.15;2.05;;;11.00;99.90;;;11.70;79.84;96929.78;5241366;28;20304;-61
2022/01/04 00:24:46;;;;;;;2.13;2.03;;;11.10;99.90;;;11.70;79.61;96940.91;5242582;28;20456;-61
2022/01/04 00:27:19;;;;;;;2.03;1.92;;;11.20;99.90;;;11.68;80.05;96927.16;5241236;28;20192;-62
2022/01/04 00:29:53;;;;;;;2.17;2.08;;;11.20;99.90;;;11.73;79.63;96917.97;5241380;28;20226;-61
2022/01/04 00:32:26;;;;;;;2.05;1.95;;;11.30;99.90;;;11.71;79.77;96919.59;5243273;28;20221;-61
2022/01/04 00:34:59;;;;;;;1.88;1.77;;;11.30;99.90;;;11.65;80.37;96914.25;5240687;28;20192;-61
2022/01/04 00:37:33;;;;;;;2.50;1.90;;;11.20;99.90;;;11.71;79.79;96901.69;5241617;28;20714;-61
2022/01/04 00:40:10;;;;;;;2.13;2.03;;;11.20;99.90;;;11.69;80.40;96897.31;5239772;28;20276;-61
2022/01/04 00:42:43;;;;;;;2.20;2.10;;;11.20;99.90;;;11.63;81.18;96903.09;5242013;28;20303;-61
2022/01/04 00:45:16;;;;;;;2.15;2.05;;;11.10;99.90;;;11.63;80.93;96899.66;5240007;28;20235;-59
2022/01/04 00:50:38;;;;;;;2.10;1.90;;;11.10;99.90;;;11.71;80.56;96877.78;5241140;28;20568;-59
2022/01/04 00:53:13;;;;;;;2.05;1.85;;;11.10;99.90;;;11.65;80.67;96873.31;5241099;28;20211;-59
2022/01/04 00:55:47;;;;;;;2.25;2.00;;;11.10;99.90;;;11.68;80.75;96873.41;5242711;28;20227;-62
2022/01/04 00:58:20;;;;;;;2.20;2.10;;;11.10;99.90;;;11.69;80.31;96871.72;5241095;28;20205;-61
2022/01/04 01:00:53;;;;;;;2.10;1.95;;;11.20;99.90;;;11.67;80.56;96858.00;5242503;28;20299;-58
2022/01/04 01:03:26;;;;;;;2.30;2.20;;;11.20;99.90;;;11.67;80.51;96870.78;5243645;28;20201;-59
2022/01/04 01:05:59;;;;;;;2.25;2.05;;;11.10;99.90;;;11.69;80.87;96857.22;5241299;28;20192;-61
2022/01/04 01:08:34;;;;;;;2.17;2.08;;;11.10;99.90;;;11.66;80.83;96852.00;5241463;28;20212;-59
2022/01/04 01:11:08;;;;;;;2.22;1.85;;;11.10;99.90;;;11.72;80.76;96856.47;5241051;28;20310;-60
2022/01/04 01:13:41;;;;;;;2.95;2.15;;;11.10;99.90;;;11.62;80.98;96845.03;5243354;28;20606;-59
2022/01/04 01:16:15;;;;;;;3.08;2.17;;;11.10;99.90;;;11.64;81.35;96843.38;5241741;28;20224;-59
2022/01/04 01:18:48;;;;;;;2.00;1.90;;;11.00;99.90;;;11.68;81.44;96844.41;5242087;28;20192;-62
2022/01/04 01:21:21;;;;;;;2.03;1.92;;;11.00;99.90;;;11.72;81.37;96839.41;5247089;28;20216;-61
2022/01/04 01:23:56;;;;;;;2.28;1.90;;;11.00;99.90;;;11.59;81.62;96836.34;5240136;28;20212;-61
2022/01/04 01:26:29;;;;;;;2.33;2.10;;;10.90;99.90;;;11.63;82.01;96826.31;5240987;28;20198;-61
2022/01/04 01:29:02;;;;;;;2.45;2.17;;;10.90;99.90;;;11.57;82.22;96820.97;5241643;28;20196;-61
2022/01/04 01:31:35;;;;;;;2.00;1.90;;;10.90;99.90;;;11.57;82.00;96808.16;5241473;28;20584;-61
2022/01/04 01:34:08;;;;;;;2.72;2.53;;;10.90;99.90;;;11.54;82.34;96804.63;5238700;28;20202;-60
2022/01/04 01:36:41;;;;;;;2.60;2.40;;;10.90;99.90;;;11.57;82.30;96799.63;5241091;28;20216;-61
2022/01/04 01:39:15;;;;;;;2.30;2.10;;;10.90;99.90;;;11.58;82.28;96791.97;5240135;28;20215;-62
2022/01/04 01:41:48;;;;;;;2.38;2.28;;;10.90;99.90;;;11.68;82.38;96788.94;5239578;28;20223;-62
2022/01/04 01:44:22;;;;;;;3.00;2.50;;;11.00;99.90;;;11.73;81.46;96787.44;5239935;28;20197;-61
2022/01/04 01:46:55;;;;;;;2.33;2.22;;;11.00;99.90;;;11.65;82.20;96781.16;5239884;28;20657;-62
2022/01/04 01:49:29;;;;;;;2.47;2.28;;;10.90;99.90;;;11.56;83.18;96774.81;5243230;28;20330;-62
2022/01/04 01:52:03;;;;;;;2.72;2.53;;;10.90;99.90;;;11.60;82.86;96771.56;5239380;28;20220;-62
2022/01/04 01:54:38;;;;;;;2.50;2.30;;;10.80;99.90;;;11.58;82.65;96760.41;5240848;28;20205;-62
2022/01/04 01:57:11;;;;;;;2.53;2.38;;;10.80;99.90;;;11.63;82.41;96759.75;5242210;28;20591;-62
2022/01/04 01:59:44;;;;;;;2.03;1.92;;;10.80;99.90;;;11.59;82.96;96747.69;5245569;28;20201;-60
2022/01/04 02:02:17;;;;;;;2.53;2.30;;;10.80;99.90;;;11.67;82.67;96745.38;5244560;28;20232;-62
2022/01/04 02:04:50;;;;;;;2.55;2.40;;;10.90;99.90;;;11.55;83.08;96730.47;5244516;28;20230;-62
2022/01/04 02:07:25;;;;;;;2.55;2.45;;;10.90;99.90;;;11.51;83.75;96723.50;5244305;28;20195;-62
2022/01/04 02:10:02;;;;;;;2.30;2.20;;;10.80;99.90;;;11.52;83.45;96711.56;5243701;28;20210;-62
2022/01/04 02:12:39;;;;;;;2.55;2.35;;;10.80;99.90;;;11.54;83.20;96710.81;5242938;28;20217;-62
2022/01/04 02:15:16;;;;;;;2.63;2.42;;;10.80;99.90;;;11.46;84.02;96707.13;5241719;28;20787;-61
2022/01/04 02:17:50;;;;;;;2.45;2.25;;;10.70;99.90;;;11.47;83.99;96716.53;5244946;28;20228;-62
2022/01/04 02:20:25;;;;;;;2.67;2.58;;;10.70;99.90;;;11.48;83.89;96700.38;5242387;28;20200;-62
2022/01/04 02:22:58;;;;;;;3.13;2.72;;;10.70;99.90;;;11.49;83.36;96704.66;5244121;28;20234;-62
2022/01/04 02:25:31;;;;;;;2.97;2.78;;;10.70;99.90;;;11.46;83.50;96694.31;5244520;28;20197;-62
2022/01/04 02:28:05;;;;;;;2.85;2.58;;;10.60;99.90;;;11.46;83.51;96692.63;5243157;28;20571;-62
2022/01/04 02:30:38;;;;;;;3.03;2.92;;;10.70;99.90;;;11.53;82.45;96680.91;5245991;28;20694;-62
2022/01/04 02:33:11;;;;;;;2.80;2.65;;;10.80;99.90;;;11.50;82.66;96680.81;5243681;28;20274;-62
2022/01/04 02:35:46;;;;;;;2.60;2.45;;;10.80;99.90;;;11.50;83.19;96670.56;5244509;28;20192;-62
2022/01/04 02:38:19;;;;;;;3.30;2.67;;;10.70;99.90;;;11.54;82.88;96677.56;5241590;28;20601;-62
2022/01/04 02:40:52;;;;;;;2.80;2.53;;;10.70;99.90;;;11.56;82.15;96664.78;5244990;28;20207;-62
2022/01/04 02:43:25;;;;;;;2.70;2.50;;;10.80;99.90;;;11.50;82.45;96655.22;5245933;28;20197;-63
2022/01/04 02:45:59;;;;;;;2.63;2.53;;;10.70;99.90;;;11.49;82.33;96653.50;5244221;28;20208;-63
2022/01/04 02:48:32;;;;;;;2.60;2.50;;;10.80;99.90;;;11.46;82.49;96635.47;5244967;28;20192;-63
2022/01/04 02:51:06;;;;;;;2.35;2.25;;;10.70;99.90;;;11.48;82.79;96628.72;5243663;28;20601;-63
2022/01/04 02:53:40;;;;;;;2.88;2.67;;;10.70;99.90;;;11.54;82.27;96626.38;5243963;28;20204;-63
2022/01/04 02:56:15;;;;;;;2.75;2.60;;;10.70;99.90;;;11.44;82.75;96614.06;5243760;28;20202;-64
2022/01/04 02:58:48;;;;;;;2.63;2.42;;;10.70;99.90;;;11.45;82.42;96605.59;5244402;28;20220;-63
2022/01/04 03:01:21;;;;;;;2.65;2.50;;;10.70;99.90;;;11.50;82.57;96597.25;5243473;28;20274;-63
2022/01/04 03:03:54;;;;;;;2.90;2.70;;;10.70;99.90;;;11.40;83.14;96586.66;5228054;22;20232;-61
2022/01/04 03:06:29;;;;;;;2.50;2.40;;;10.60;99.90;;;11.36;83.67;96582.25;5208098;28;20659;-59
2022/01/04 03:09:03;;;;;;;2.80;2.67;;;10.60;99.90;;;11.32;84.03;96575.31;5203527;28;20197;-61
2022/01/04 03:11:36;;;;;;;2.55;2.35;;;10.60;99.90;;;11.30;84.60;96574.38;5206965;28;20661;-61
2022/01/04 03:14:09;;;;;;;2.58;2.45;;;10.60;99.90;;;11.23;84.95;96563.06;5185640;28;20206;-61
2022/01/04 03:16:42;;;;;;;2.58;2.42;;;10.50;99.90;;;11.19;85.11;96566.38;5185818;28;20201;-62
2022/01/04 03:19:15;;;;;;;2.40;2.20;;;10.50;99.90;;;11.17;85.38;96562.88;5185831;28;20355;-59
2022/01/04 03:21:50;;;;;;;2.75;2.60;;;10.50;99.90;;;11.16;86.16;96564.56;5183842;28;20202;-61
2022/01/04 03:24:23;;;;;;;2.90;2.70;;;10.50;99.90;;;11.12;86.64;96552.47;5183697;28;20688;-59
2022/01/04 03:26:56;;;;;;;2.97;2.78;;;10.40;99.90;;;11.05;86.79;96553.97;5187148;28;20658;-61
2022/01/04 03:29:29;;;;;;;2.72;2.63;;;10.40;99.90;;;10.98;87.55;96546.91;5184381;28;20198;-61
2022/01/04 03:32:03;;;;;;;2.53;2.42;;;10.30;99.90;;;10.95;88.27;96545.94;5184564;28;20622;-61
2022/01/04 03:34:36;;;;;;;2.33;2.22;;;10.30;99.90;;;10.86;88.57;96543.94;5183766;28;20201;-60
2022/01/04 03:37:10;;;;;;;3.25;2.70;;;10.30;99.90;;;10.88;89.52;96533.78;5180383;28;20678;-62
2022/01/04 03:39:43;;;;;;;2.60;2.50;;;10.20;99.90;;;10.80;90.16;96529.25;5181930;28;20198;-60
2022/01/04 03:42:16;;;;;;;3.20;2.90;;;10.20;99.90;;;10.73;91.03;96534.97;5179212;28;20381;-62
2022/01/04 03:44:49;;;;;;;3.53;3.10;;;10.10;99.90;;;10.64;91.79;96528.66;5183351;28;20229;-61
2022/01/04 03:47:22;;;;;;;2.80;2.60;;;10.10;99.90;;;10.54;92.89;96522.38;5181022;28;20306;-61
2022/01/04 03:49:55;;;;;;;2.80;2.70;;;10.00;99.90;;;10.50;93.99;96523.06;5181397;28;20203;-62
2022/01/04 03:52:30;;;;;;;2.80;2.60;;;10.00;99.90;;;10.44;94.14;96512.63;5183214;28;20596;-57
2022/01/04 03:55:04;;;;;;;3.25;3.00;;;9.90;99.90;;;10.41;95.30;96507.41;5182548;28;20198;-60
2022/01/04 03:57:38;;;;;;;2.90;2.70;;;9.90;99.90;;;10.41;94.95;96513.38;5182901;28;20232;-61
2022/01/04 04:00:12;;;;;;;3.30;3.08;;;9.90;99.90;;;10.36;95.38;96504.72;5179444;28;20239;-61
2022/01/04 04:02:45;;;;;;;2.80;2.60;;;9.80;99.90;;;10.32;95.50;96495.19;5184284;28;20235;-61
2022/01/04 04:05:19;;;;;;;2.90;2.80;;;9.70;99.90;;;10.27;95.93;96489.94;5180392;28;20234;-61
2022/01/04 04:07:53;;;;;;;3.10;2.90;;;9.70;99.90;;;10.28;96.49;96484.00;5182823;28;20199;-61
2022/01/04 04:10:26;;;;;;;3.15;2.95;;;9.70;99.90;;;10.28;97.49;96478.03;5179770;28;20654;-61
2022/01/04 04:12:59;;;;;;;3.25;3.00;;;9.70;99.90;;;10.27;97.53;96472.06;5181876;28;20226;-62
2022/01/04 04:15:33;;;;;;;3.08;2.88;;;9.70;99.90;;;10.28;98.33;96463.56;5183318;28;20205;-62
2022/01/04 04:18:06;;;;;;;3.33;3.13;;;9.70;99.90;;;10.27;97.93;96455.84;5184138;28;20972;-62
2022/01/04 04:20:40;;;;;;;3.38;3.10;;;9.70;99.90;;;10.23;98.52;96454.84;5184430;28;20205;-62
2022/01/04 04:23:14;;;;;;;3.38;3.17;;;9.60;99.90;;;10.22;98.92;96462.47;5185570;28;20221;-62
2022/01/04 04:25:48;;;;;;;3.10;2.90;;;9.60;99.90;;;10.17;99.79;96453.75;5184882;28;21019;-63
2022/01/04 04:28:21;;;;;;;3.60;3.30;;;9.60;99.90;;;10.13;100.00;96442.59;5183587;28;20672;-63
2022/01/04 04:30:55;;;;;;;3.35;3.15;;;9.50;99.90;;;10.09;100.00;96436.47;5183951;28;20199;-64
2022/01/04 04:33:29;;;;;;;2.92;2.72;;;9.50;99.90;;;10.07;100.00;96437.22;5185603;28;20692;-64
2022/01/04 04:36:02;;;;;;;3.25;2.95;;;9.50;99.90;;;10.09;100.00;96440.72;5187319;28;20209;-64
2022/01/04 04:38:36;;;;;;;4.28;3.97;;;9.50;99.90;;;10.01;100.00;96431.91;5181673;28;20697;-64
2022/01/04 04:41:09;;;;;;;3.78;3.47;;;9.40;99.90;;;9.98;100.00;96431.81;5185024;28;20200;-64
2022/01/04 04:43:43;;;;;;;4.25;3.95;;;9.40;99.90;;;9.94;100.00;96425.72;5184063;28;20222;-64
2022/01/04 04:46:16;;;;;;;3.40;3.20;;;9.40;99.90;;;9.90;100.00;96424.75;5181979;28;20203;-64
2022/01/04 04:48:49;;;;;;;3.40;3.20;;;9.40;99.90;;;9.93;100.00;96421.44;5187447;28;20621;-65
2022/01/04 04:51:22;;;;;;;3.50;3.30;;;9.30;99.90;;;9.95;100.00;96424.03;5183796;28;20198;-64
2022/01/04 04:53:56;;;;;;;3.63;3.20;;;9.30;99.90;;;9.98;100.00;96414.78;5188480;28;20226;-64
2022/01/04 04:56:29;;;;;;;3.35;3.15;;;9.30;99.90;;;9.97;100.00;96415.63;5182540;28;20285;-64
2022/01/04 04:59:02;;;;;;;3.50;3.30;;;9.40;99.90;;;9.94;100.00;96407.84;5186092;28;20584;-64
2022/01/04 05:01:36;;;;;;;3.88;3.53;;;9.30;99.90;;;9.91;100.00;96400.09;5189027;28;20210;-63
2022/01/04 05:04:09;;;;;;;3.72;3.53;;;9.30;99.90;;;9.91;100.00;96400.09;5185939;28;20206;-64
2022/01/04 05:06:43;;;;;;;4.13;3.72;;;9.30;99.90;;;9.89;100.00;96396.59;5183714;28;20388;-64
2022/01/04 05:09:18;;;;;;;3.97;3.70;;;9.30;99.90;;;9.87;100.00;96395.69;5181285;28;20225;-64
2022/01/04 05:11:51;;;;;;;3.95;3.75;;;9.30;99.90;;;9.85;100.00;96395.63;5185713;28;20197;-64
2022/01/04 05:14:24;;;;;;;4.35;4.05;;;9.30;99.90;;;9.85;100.00;96390.53;5183755;28;20209;-64
2022/01/04 05:16:57;;;;;;;4.15;3.85;;;9.30;99.90;;;9.86;100.00;96388.84;5184572;28;20597;-64
2022/01/04 05:19:30;;;;;;;8.13;5.50;;;9.30;99.90;;;9.87;100.00;96377.81;5183660;28;20219;-64
2022/01/04 05:22:04;;;;;;;9.38;5.60;;;9.30;99.90;;;9.87;100.00;96383.81;5185750;28;20220;-64
2022/01/04 05:24:39;;;;;;;8.18;5.78;;;9.30;99.90;;;9.92;100.00;96381.41;5183996;28;20213;-65
2022/01/04 05:27:12;;;;;;;10.23;6.15;;;9.30;99.90;;;9.90;100.00;96376.25;5185877;28;20198;-65
2022/01/04 05:29:45;;;;;;;10.85;5.50;;;9.30;99.90;;;9.90;100.00;96373.72;5184859;28;20584;-65
2022/01/04 05:32:18;;;;;;;6.35;4.95;;;9.30;99.90;;;9.92;100.00;96372.06;5186133;28;20220;-65
2022/01/04 05:34:51;;;;;;;5.57;4.32;;;9.30;99.90;;;9.92;100.00;96366.94;5189020;28;20226;-65
2022/01/04 05:37:24;;;;;;;3.65;3.30;;;9.30;99.90;;;9.86;100.00;96360.78;5186871;28;20207;-65
2022/01/04 05:39:58;;;;;;;4.03;3.72;;;9.20;99.90;;;9.82;100.00;96367.47;5190653;28;20712;-64
2022/01/04 05:42:31;;;;;;;3.50;3.20;;;9.20;99.90;;;9.79;100.00;96357.16;5189310;28;20217;-64
2022/01/04 05:45:06;;;;;;;5.47;4.78;;;9.20;99.90;;;9.77;100.00;96353.66;5189252;28;20194;-65
2022/01/04 05:47:39;;;;;;;4.63;4.13;;;9.20;99.90;;;9.69;100.00;96347.41;5186436;28;20210;-65
2022/01/04 05:50:12;;;;;;;4.18;3.88;;;9.10;99.90;;;9.70;100.00;96349.19;5184101;28;20195;-65
2022/01/04 05:52:45;;;;;;;3.90;3.60;;;9.10;99.90;;;9.73;100.00;96338.19;5187841;28;20227;-65
2022/01/04 05:55:20;;;;;;;5.97;5.35;;;9.20;99.90;;;9.71;100.00;96335.59;5188080;28;20422;-65
2022/01/04 05:57:53;;;;;;;6.50;5.90;;;9.10;99.90;;;9.72;100.00;96327.13;5188052;28;21823;-65
2022/01/04 06:00:26;;;;;;;4.65;3.88;;;9.10;99.90;;;9.63;100.00;96307.25;5185349;28;20227;-65
2022/01/04 06:03:00;;;;;;;4.63;3.42;;;9.10;99.90;;;9.60;100.00;96312.25;5194331;28;20337;-65
2022/01/04 06:05:33;;;;;;;3.65;3.35;;;9.10;99.90;;;9.60;100.00;96311.38;5184835;28;20304;-65
2022/01/04 06:08:06;;;;;;;3.72;3.42;;;9.10;99.90;;;9.57;100.00;96290.88;5188820;28;20208;-65
2022/01/04 06:10:43;;;;;;;3.45;3.25;;;9.10;99.90;;;9.56;100.00;96286.59;5183978;28;20213;-65
2022/01/04 06:16:22;;;;;;;3.92;3.63;;;9.10;99.90;;;9.64;100.00;96277.50;5131251;28;20200;-64
2022/01/04 06:18:55;;;;;;;4.88;4.47;;;9.10;99.90;;;9.60;100.00;96270.56;5140621;28;20223;-65
2022/01/04 06:21:28;;;;;;;6.82;5.30;;;9.10;99.90;;;9.60;100.00;96270.56;5159598;28;20205;-65
2022/01/04 06:24:01;;;;;;;4.90;4.40;;;9.10;99.90;;;9.63;100.00;96278.31;5182903;28;20215;-65
2022/01/04 06:26:35;;;;;;;4.90;4.30;;;9.10;99.90;;;9.62;100.00;96264.72;5180111;28;20195;-65
2022/01/04 06:29:10;;;;;;;4.50;4.10;;;9.10;99.90;;;9.62;100.00;96264.72;5178520;28;20198;-65
2022/01/04 06:31:43;;;;;;;7.53;6.93;;;9.10;99.90;;;9.62;100.00;96248.53;5182025;28;20674;-65
2022/01/04 06:34:17;;;;;;;6.75;6.15;;;9.10;99.90;;;9.64;100.00;96249.44;5182671;28;20625;-65
2022/01/04 06:36:50;;;;;;;4.65;3.78;;;9.10;99.90;;;9.67;100.00;96241.88;5193635;28;20221;-65
2022/01/04 06:39:23;;;;;;;3.42;3.22;;;9.10;99.90;;;9.65;100.00;96229.09;5181904;28;20613;-65
2022/01/04 06:41:58;;;;;;;4.70;4.30;;;9.10;99.90;;;9.62;100.00;96229.00;5184172;28;20666;-65
2022/01/04 06:44:35;;;;;;;5.25;4.85;;;9.00;99.90;;;9.57;100.00;96225.41;5180648;28;20617;-64
2022/01/04 06:47:09;;;;;;;5.85;5.25;;;9.00;99.90;;;9.58;100.00;96221.19;5181612;28;20203;-65
2022/01/04 06:49:42;;;;;;;4.70;4.40;;;9.00;99.90;;;9.61;100.00;96216.19;5183789;28;20199;-65
2022/01/04 06:52:16;;;;;;;4.30;4.00;;;9.00;99.90;;;9.63;100.00;96210.31;5184642;28;20678;-65
2022/01/04 06:54:49;;;;;;;4.85;4.45;;;9.00;99.90;;;9.67;100.00;96211.28;5180385;28;20206;-65
2022/01/04 06:57:29;;;;;;;4.65;4.30;;;9.10;99.90;;;9.69;100.00;96209.66;5180840;28;20201;-65
2022/01/04 07:00:03;;;;;;;5.05;4.65;;;9.10;99.90;;;9.69;100.00;96202.88;5177547;28;20692;-65
2022/01/04 07:02:36;;;;;;;5.13;4.82;;;9.10;99.90;;;9.69;100.00;96212.22;5183296;28;20249;-65
2022/01/04 07:05:09;;;;;;;6.53;5.93;;;9.10;99.90;;;9.69;100.00;96210.53;5186017;28;20726;-65
2022/01/04 07:07:42;;;;;;;6.82;6.32;;;9.10;99.90;;;9.70;100.00;96207.19;5180457;28;20203;-65
2022/01/04 07:10:17;;;;;;;6.45;5.95;;;9.00;99.90;;;9.71;100.00;96205.47;5177547;28;20547;-66
2022/01/04 07:12:51;;;;;;;6.50;5.90;;;9.10;99.90;;;9.66;100.00;96209.56;5180020;28;20226;-65
2022/01/04 07:15:24;;;;;;;5.55;5.15;;;9.00;99.90;;;9.66;100.00;96200.22;5188873;28;20788;-65
2022/01/04 07:17:57;;;;;;;4.65;4.35;;;9.00;99.90;;;9.63;100.00;96204.34;5185354;28;20224;-65
2022/01/04 07:20:30;;;;;;;4.72;4.43;;;9.00;99.90;;;9.67;100.00;96193.44;5179817;28;20234;-65
2022/01/04 07:23:04;;;;;;;4.70;4.30;;;9.00;99.90;;;9.68;100.00;96190.06;5178717;28;20746;-65
2022/01/04 07:25:37;;;;;;;4.13;3.83;;;9.00;99.90;;;9.69;100.00;96189.25;5180019;28;20211;-65
2022/01/04 07:28:11;;;;;;;4.10;3.90;;;9.10;99.90;;;9.68;100.00;96182.44;5179202;28;20206;-65
2022/01/04 07:30:44;;;;;;;3.95;3.65;;;9.00;99.90;;;9.70;100.00;96185.91;5186368;28;20229;-65
2022/01/04 07:33:17;;;;;;;4.50;4.20;;;9.10;99.90;;;9.72;100.00;96174.03;5178794;28;20304;-65
2022/01/04 07:35:50;;;;;;;4.20;3.90;;;9.10;99.90;;;9.76;100.00;96175.00;5177363;28;20221;-65
2022/01/04 07:38:24;;;;;;;4.63;4.32;;;9.10;99.90;;;9.78;100.00;96174.25;5178251;28;20551;-65
2022/01/04 07:40:57;;;;;;;4.05;3.75;;;9.10;99.90;;;9.78;100.00;96173.38;5182923;28;20233;-65
2022/01/04 07:43:31;;;;;;;3.85;3.60;;;9.10;99.90;;;9.77;100.00;96164.88;5186308;28;20402;-65
2022/01/04 07:46:05;;;;;;;4.85;4.53;;;9.10;99.90;;;9.78;100.00;96163.16;5180033;28;20198;-66
2022/01/04 07:48:38;;;;;;;4.55;4.25;;;9.10;99.90;;;9.76;100.00;96155.47;5179680;28;20225;-65
2022/01/04 07:51:11;;;;;;;4.70;4.38;;;9.10;99.90;;;9.77;100.00;96147.00;5181569;28;20202;-65
2022/01/04 07:53:44;;;;;;;5.00;4.60;;;9.10;99.90;;;9.82;100.00;96153.13;5178618;28;20227;-65
2022/01/04 07:56:17;;;;;;;4.68;4.18;;;9.20;99.90;;;9.85;100.00;96154.91;5179703;28;20206;-65
2022/01/04 07:58:52;;;;;;;4.60;4.20;;;9.20;99.90;;;9.76;100.00;96142.72;5178949;28;20202;-65
2022/01/04 08:01:25;;;;;;;4.30;4.00;;;9.10;99.90;;;9.76;100.00;96150.38;5180003;28;20601;-66
2022/01/04 08:04:00;;;;;;;3.60;3.40;;;9.10;99.90;;;9.75;100.00;96138.41;5180643;28;20230;-66
2022/01/04 08:06:33;;;;;;;3.67;3.47;;;9.10;99.90;;;9.74;100.00;96144.34;5179858;28;20573;-66
2022/01/04 08:09:06;;;;;;;3.65;3.45;;;9.10;99.90;;;9.77;100.00;96131.69;5181070;28;20198;-65
2022/01/04 08:11:42;;;;;;;3.33;3.13;;;9.10;99.90;;;9.83;100.00;96131.88;5180446;28;20550;-65
2022/01/04 08:14:16;;;;;;;3.55;3.20;;;9.20;99.90;;;9.88;100.00;96125.25;5181900;28;20538;-66
2022/01/04 08:16:49;;;;;;;3.85;3.40;;;9.30;99.90;;;9.92;100.00;96111.75;5187287;28;20201;-66
2022/01/04 08:19:22;;;;;;;3.33;3.10;;;9.30;99.90;;;9.99;100.00;96109.41;5175698;28;20239;-66
2022/01/04 08:21:55;;;;;;;4.03;3.83;;;9.40;99.90;;;10.16;100.00;96100.59;5184735;28;20198;-66
2022/01/04 08:24:28;;;;;;;3.95;3.50;;;9.40;99.90;;;10.14;100.00;96097.09;5185517;28;20935;-66
2022/01/04 08:27:01;;;;;;;3.35;3.15;;;9.50;99.90;;;10.19;100.00;96105.78;5179117;28;20202;-66
2022/01/04 08:29:36;;;;;;;3.80;3.50;;;9.60;99.90;;;10.26;100.00;96107.69;5180526;28;20209;-65
2022/01/04 08:32:09;;;;;;;3.83;3.63;;;9.60;99.90;;;10.30;100.00;96104.44;5187146;28;20272;-65
2022/01/04 08:34:42;;;;;;;4.07;3.80;;;9.60;99.90;;;10.33;100.00;96101.09;5176876;28;20198;-66
2022/01/04 08:37:16;;;;;;;4.40;4.05;;;9.70;99.90;;;10.37;100.00;96091.03;5175959;28;20213;-66
2022/01/04 08:39:49;;;;;;;3.75;3.42;;;9.70;99.90;;;10.41;100.00;96091.09;5180244;28;20222;-66
2022/01/04 08:42:22;;;;;;;3.45;3.17;;;9.80;99.90;;;10.56;100.00;96096.66;5178975;28;20252;-66
2022/01/04 08:44:57;;;;;;;3.55;3.03;;;9.90;99.90;;;10.55;100.00;96097.47;5179509;28;20209;-65
2022/01/04 08:47:30;;;;;;;2.80;2.60;;;9.90;99.90;;;10.59;100.00;96092.50;5186196;28;20198;-66
2022/01/04 08:50:06;;;;;;;2.92;2.72;;;9.90;99.90;;;10.67;100.00;96089.28;5179106;28;20238;-66
2022/01/04 08:52:39;;;;;;;2.45;2.33;;;10.00;99.90;;;10.74;100.00;96092.06;5180275;28;20717;-66
2022/01/04 08:55:13;;;;;;;2.80;2.60;;;10.00;99.90;;;10.71;100.00;96104.75;5181176;28;20203;-66
2022/01/04 08:57:46;;;;;;;2.70;2.60;;;10.10;99.90;;;10.76;100.00;96094.69;5179338;28;20206;-66
2022/01/04 09:00:21;;;;;;;2.60;2.50;;;10.10;99.90;;;10.81;100.00;96093.09;5174653;28;20219;-66
2022/01/04 09:02:54;;;;;;;2.80;2.60;;;10.10;99.90;;;10.77;100.00;96076.81;5179891;28;20226;-66
2022/01/04 09:05:27;;;;;;;2.78;2.58;;;10.20;99.90;;;10.86;100.00;96080.44;5178380;28;20242;-65
2022/01/04 09:08:01;;;;;;;3.17;2.80;;;10.20;99.90;;;10.88;100.00;96078.81;5174820;28;20203;-65
2022/01/04 09:10:34;;;;;;;2.88;2.72;;;10.20;99.90;;;11.01;100.00;96071.47;5178649;28;20554;-65
2022/01/04 09:13:12;;;;;;;3.08;2.88;;;10.30;99.90;;;11.00;100.00;96072.31;5179779;28;20222;-65
2022/01/04 09:18:46;;;;;;;4.60;4.15;;;10.20;99.90;;;11.05;100.00;96067.34;5154213;28;20209;-68
2022/01/04 09:21:30;;;;;;;5.25;4.68;;;10.30;99.90;;;11.02;100.00;96067.25;5180403;28;20264;-67
2022/01/04 09:24:05;;;;;;;3.72;3.42;;;10.30;99.90;;;11.05;100.00;96072.44;5175612;28;20316;-67
2022/01/04 09:26:38;;;;;;;3.22;3.03;;;10.30;99.90;;;11.02;100.00;96073.22;5177152;28;20328;-67
2022/01/04 09:29:12;;;;;;;4.28;4.05;;;10.30;99.90;;;11.03;100.00;96076.66;5181993;28;20204;-67
2022/01/04 09:31:47;;;;;;;4.75;4.35;;;10.30;99.90;;;11.21;100.00;96072.00;5176475;28;20218;-67
2022/01/04 09:34:20;;;;;;;5.53;5.03;;;10.40;99.90;;;11.18;100.00;96068.50;5178475;28;20195;-67
2022/01/04 09:36:54;;;;;;;3.72;3.42;;;10.40;99.90;;;11.20;100.00;96070.28;5179077;28;20298;-67
2022/01/04 09:39:27;;;;;;;3.08;2.55;;;10.40;99.90;;;11.31;100.00;96062.88;5179250;28;20207;-67
2022/01/04 09:42:00;;;;;;;2.47;2.28;;;10.50;99.90;;;11.27;100.00;96059.38;5178901;28;20887;-67
2022/01/04 09:44:33;;;;;;;3.00;2.80;;;10.50;99.90;;;11.27;100.00;96058.50;5177910;28;20828;-67
2022/01/04 09:47:08;;;;;;;3.03;2.78;;;10.40;99.90;;;11.41;100.00;96043.50;5183661;28;20203;-67
2022/01/04 09:49:42;;;;;;;2.53;2.35;;;10.50;99.90;;;11.44;100.00;96046.97;5176525;28;20527;-67
2022/01/04 09:52:19;;;;;;;2.50;2.30;;;10.60;99.90;;;11.40;100.00;96036.66;5178525;28;20578;-67
2022/01/04 09:54:55;;;;;;;2.55;2.35;;;10.50;99.90;;;11.44;100.00;96034.19;5178735;28;20448;-67
2022/01/04 09:57:28;;;;;;;2.67;2.47;;;10.60;99.90;;;11.53;100.00;96036.09;5178196;28;20278;-67
2022/01/04 10:00:02;;;;;;;2.67;2.47;;;10.70;99.90;;;11.53;100.00;96030.97;5173497;28;20207;-67
2022/01/04 10:02:36;;;;;;;2.70;2.50;;;10.80;99.90;;;11.52;100.00;96021.59;5179289;28;20233;-67
2022/01/04 10:05:15;;;;;;;2.92;2.72;;;10.80;99.90;;;11.53;100.00;96028.44;5174386;28;20252;-67
2022/01/04 10:07:50;;;;;;;2.80;2.60;;;10.90;99.90;;;11.50;100.00;96025.78;5177580;28;20202;-67
2022/01/04 10:10:24;;;;;;;2.65;2.55;;;11.00;99.90;;;11.58;100.00;96011.50;5175567;28;20209;-66
2022/01/04 10:13:01;;;;;;;2.83;2.63;;;11.10;99.90;;;11.56;100.00;96010.63;5178630;28;20223;-66
2022/01/04 10:15:40;;;;;;;2.88;2.55;;;11.00;99.90;;;11.55;100.00;96010.56;5177805;28;20225;-67
2022/01/04 10:18:24;;;;;;;2.72;2.53;;;11.10;99.90;;;11.63;100.00;96009.91;5182864;28;20615;-66
2022/01/04 10:21:16;;;;;;;2.90;2.60;;;11.20;99.90;;;11.65;100.00;96007.41;5189574;28;20211;-67
2022/01/04 10:23:56;;;;;;;3.03;2.67;;;11.20;99.90;;;11.73;100.00;96011.88;5181517;28;20614;-67
2022/01/04 10:26:37;;;;;;;2.95;2.72;;;11.40;99.90;;;11.64;100.00;96016.75;5183481;28;20203;-67
2022/01/04 10:29:22;;;;;;;3.00;2.80;;;11.30;99.90;;;11.76;100.00;95999.94;5183030;28;20206;-65
2022/01/04 10:31:57;;;;;;;2.53;2.38;;;11.40;99.90;;;11.66;100.00;95986.94;5187304;28;20206;-65
2022/01/04 10:34:46;;;;;;;2.85;2.35;;;11.50;99.90;;;11.73;100.00;95983.72;5183790;28;20198;-65
2022/01/04 10:37:40;;;;;;;2.80;2.45;;;11.50;99.90;;;11.76;100.00;95989.72;5177626;28;20203;-68
2022/01/04 10:40:16;;;;;;;2.35;2.25;;;11.50;99.90;;;11.77;100.00;95976.09;5179161;28;20289;-65
2022/01/04 10:42:50;;;;;;;2.40;2.20;;;11.50;99.90;;;11.77;100.00;95983.78;5182655;28;20722;-67
2022/01/04 10:45:30;;;;;;;2.75;2.55;;;11.50;99.90;;;11.88;100.00;95997.72;5180700;28;20195;-65
2022/01/04 10:48:17;;;;;;;2.53;2.25;;;11.60;99.90;;;11.88;100.00;95987.47;5178537;28;20730;-65
2022/01/04 10:50:54;;;;;;;2.80;2.60;;;11.50;99.90;;;11.85;100.00;95983.13;5185033;28;20218;-67
2022/01/04 10:53:30;;;;;;;2.70;2.50;;;11.60;99.90;;;11.82;100.00;95977.06;5185316;28;20218;-65
2022/01/04 10:56:06;;;;;;;3.08;2.78;;;11.50;99.90;;;11.88;100.00;95983.22;5180061;28;20220;-67
2022/01/04 10:58:41;;;;;;;2.97;2.78;;;11.50;99.90;;;11.89;100.00;95984.06;5182052;28;20233;-67